San Tan Valley, Arizona
Current Conditions -  °F | °C
As of 5:49 AM on Saturday 20 Dec 2014 (Local Time) from KIWA Reporting Station
Broken Clouds Broken Clouds  
Wind Chill: 37°   Ceiling: 20000
Heat Index: 41°   Visibility: 20mi
Dew Point: 37°   Wind: 6mph
Humidity: 87%   Direction: 130°SE
Pressure: 30.12"   Gusts: NA
Location:  33.17°N, 111.57°W
Report Text: KIWA 201249Z 13005KT 20SM BKN200 05/03 A3012
Loading
Personal Weather Stations






























Interactive Weather Map New forecast layout! Learn more

10-Day Weather Forecast

Advertisements
Track Severe Weather on mobile